地図

経路データ

SID SEASON NUMBER BASIN SUBBASIN NAME ISO_TIME NATURE LAT LON WMO_WIND WMO_PRES WMO_AGENCY TRACK_TYPE DIST2LAND LANDFALL IFLAG USA_AGENCY USA_ATCF_ID USA_LAT USA_LON USA_RECORD USA_STATUS USA_WIND USA_PRES USA_SSHS USA_R34_NE USA_R34_SE USA_R34_SW USA_R34_NW USA_R50_NE USA_R50_SE USA_R50_SW USA_R50_NW USA_R64_NE USA_R64_SE USA_R64_SW USA_R64_NW USA_POCI USA_ROCI USA_RMW USA_EYE TOKYO_LAT TOKYO_LON TOKYO_GRADE TOKYO_WIND TOKYO_PRES TOKYO_R50_DIR TOKYO_R50_LONG TOKYO_R50_SHORT TOKYO_R30_DIR TOKYO_R30_LONG TOKYO_R30_SHORT TOKYO_LAND CMA_LAT CMA_LON CMA_CAT CMA_WIND CMA_PRES HKO_LAT HKO_LON HKO_CAT HKO_WIND HKO_PRES NEWDELHI_LAT NEWDELHI_LON NEWDELHI_GRADE NEWDELHI_WIND NEWDELHI_PRES NEWDELHI_CI NEWDELHI_DP NEWDELHI_POCI REUNION_LAT REUNION_LON REUNION_TYPE REUNION_WIND REUNION_PRES REUNION_TNUM REUNION_CI REUNION_RMW REUNION_R34_NE REUNION_R34_SE REUNION_R34_SW REUNION_R34_NW REUNION_R50_NE REUNION_R50_SE REUNION_R50_SW REUNION_R50_NW REUNION_R64_NE REUNION_R64_SE REUNION_R64_SW REUNION_R64_NW BOM_LAT BOM_LON BOM_TYPE BOM_WIND BOM_PRES BOM_TNUM BOM_CI BOM_RMW BOM_R34_NE BOM_R34_SE BOM_R34_SW BOM_R34_NW BOM_R50_NE BOM_R50_SE BOM_R50_SW BOM_R50_NW BOM_R64_NE BOM_R64_SE BOM_R64_SW BOM_R64_NW BOM_ROCI BOM_POCI BOM_EYE BOM_POS_METHOD BOM_PRES_METHOD NADI_LAT NADI_LON NADI_CAT NADI_WIND NADI_PRES WELLINGTON_LAT WELLINGTON_LON WELLINGTON_WIND WELLINGTON_PRES DS824_LAT DS824_LON DS824_STAGE DS824_WIND DS824_PRES TD9636_LAT TD9636_LON TD9636_STAGE TD9636_WIND TD9636_PRES TD9635_LAT TD9635_LON TD9635_WIND TD9635_PRES TD9635_ROCI NEUMANN_LAT NEUMANN_LON NEUMANN_CLASS NEUMANN_WIND NEUMANN_PRES MLC_LAT MLC_LON MLC_CLASS MLC_WIND MLC_PRES USA_GUST BOM_GUST BOM_GUST_PER REUNION_GUST REUNION_GUST_PER USA_SEAHGT USA_SEARAD_NE USA_SEARAD_SE USA_SEARAD_SW USA_SEARAD_NW STORM_SPEED STORM_DIR
1979137N19117 1979 39 WP MM NOT_NAMED 1979-05-17 06:00:00 TS 19.2000 117.000 main 388 385 __O___________ -1 19.2000 117.000 0 19 1005 8 204
1979137N19117 1979 39 WP MM NOT_NAMED 1979-05-17 09:00:00 TS 18.8301 116.825 main 393 389 __P___________ -1 18.8301 116.825 0 24 1004 8 202
1979137N19117 1979 39 WP MM NOT_NAMED 1979-05-17 12:00:00 TS 18.5000 116.700 main 393 386 __O___________ -1 18.5000 116.700 1 29 1004 6 193
1979137N19117 1979 39 WP MM NOT_NAMED 1979-05-17 15:00:00 TS 18.2349 116.675 main 386 371 __P___________ -1 18.2349 116.675 1 29 1004 5 169
1979137N19117 1979 39 WP MM NOT_NAMED 1979-05-17 18:00:00 TS 18.0000 116.800 main 371 323 __O___________ -1 18.0000 116.800 1 29 1004 7 133
1979137N19117 1979 39 WP MM NOT_NAMED 1979-05-17 21:00:00 TS 17.7653 117.211 main 323 279 __P___________ -1 17.7653 117.211 1 29 1004 8 127
1979137N19117 1979 39 WP MM NOT_NAMED 1979-05-18 00:00:00 TS 17.5000 117.500 main 279 274 __O___________ -1 17.5000 117.500 1 29 1004 7 189
1979137N19117 1979 39 WP MM NOT_NAMED 1979-05-18 03:00:00 TS 17.1127 117.104 main 301 301 __P___________ -1 17.1127 117.104 1 29 1004 10 224
1979137N19117 1979 39 WP MM NOT_NAMED 1979-05-18 06:00:00 TS 16.8000 116.800 main 322 257 __O___________ -1 16.8000 116.800 1 29 1004 5 140
1979137N19117 1979 39 WP MM NOT_NAMED 1979-05-18 09:00:00 TS 16.7262 117.443 main 257 189 __P___________ -1 16.7262 117.443 1 29 1004 12 90
1979137N19117 1979 39 WP MM NOT_NAMED 1979-05-18 12:00:00 TS 16.8000 118.100 main 189 189 __O___________ -1 16.8000 118.100 1 29 1004 5 66
1979137N19117 1979 39 WP MM NOT_NAMED 1979-05-18 15:00:00 TS 16.9350 117.920 main 213 213 __P___________ -1 16.9350 117.920 1 29 1004 6 298
1979137N19117 1979 39 WP MM NOT_NAMED 1979-05-18 18:00:00 TS 17.1000 117.500 main 260 260 __O___________ -1 17.1000 117.500 1 29 1004 6 297
1979137N19117 1979 39 WP MM NOT_NAMED 1979-05-18 21:00:00 TS 17.2149 117.335 main 284 284 __P___________ -1 17.2149 117.335 1 29 1004 4 305
1979137N19117 1979 39 WP MM NOT_NAMED 1979-05-19 00:00:00 TS 17.3000 117.200 main 298 298 __O___________ -1 17.3000 117.200 1 29 1004 3 296
1979137N19117 1979 39 WP MM NOT_NAMED 1979-05-19 03:00:00 TS 17.3650 117.008 main 322 322 __P___________ -1 17.3650 117.008 1 29 1004 4 285
1979137N19117 1979 39 WP MM NOT_NAMED 1979-05-19 06:00:00 TS 17.4000 116.800 main 342 342 __O___________ -1 17.4000 116.800 1 29 1004 4 276
1979137N19117 1979 39 WP MM NOT_NAMED 1979-05-19 09:00:00 TS 17.4074 116.615 main 362 362 __P___________ -1 17.4074 116.615 1 29 1004 4 270
1979137N19117 1979 39 WP MM NOT_NAMED 1979-05-19 12:00:00 TS 17.4000 116.400 main 382 382 __O___________ -1 17.4000 116.400 1 29 1004 5 264
1979137N19117 1979 39 WP MM NOT_NAMED 1979-05-19 15:00:00 TS 17.3551 116.092 main 412 412 __P___________ -1 17.3551 116.092 1 29 1004 6 270
1979137N19117 1979 39 WP MM NOT_NAMED 1979-05-19 18:00:00 TS 17.4000 115.800 main 443 443 __O___________ -1 17.4000 115.800 1 29 1004 6 304
1979137N19117 1979 39 WP MM NOT_NAMED 1979-05-19 21:00:00 TS 17.6624 115.613 main 473 473 __P___________ -1 17.6624 115.613 1 29 1004 7 335
1979137N19117 1979 39 WP MM NOT_NAMED 1979-05-20 00:00:00 TS 18.0000 115.500 main 494 475 __O___________ -1 18.0000 115.500 1 29 1004 6 345
1979137N19117 1979 39 WP MM NOT_NAMED 1979-05-20 03:00:00 TS 18.2199 115.457 main 475 440 __P___________ -1 18.2199 115.457 1 29 1004 5 349
1979137N19117 1979 39 WP MM NOT_NAMED 1979-05-20 06:00:00 TS 18.5000 115.400 main 440 380 __O___________ -1 18.5000 115.400 1 29 1004 8 340
1979137N19117 1979 39 WP MM NOT_NAMED 1979-05-20 09:00:00 TS 19.0001 115.156 main 380 321 __P___________ -1 19.0001 115.156 1 26 1004 11 339
1979137N19117 1979 39 WP MM NOT_NAMED 1979-05-20 12:00:00 TS 19.5000 115.000 main 321 291 __O___________ -1 19.5000 115.000 1 23 1004 8 359
1979137N19117 1979 39 WP MM NOT_NAMED 1979-05-20 15:00:00 TS 19.8127 115.152 main 294 281 __P___________ -1 19.8127 115.152 1 23 1004 7 43
1979137N19117 1979 39 WP MM NOT_NAMED 1979-05-20 18:00:00 TS 20.0000 115.500 main 285 __O___________ -1 20.0000 115.500 1 23 1004 8 60

デジタル台風データ・検索

IBTrACS Databaseについて

本データベースは、米国NOAAが公開する1842年以降の世界の熱帯低気圧のベストトラックデータアーカイブInternational Best Track Archive for Climate Stewardship (IBTrACS)を、ウェブで閲覧しやすい形式に変換したものです。

最終更新日:2021-10-25